Time;durP1;ratioP1;P1;durP2;ratioP2;P2;SDS_P1;SDS_P2;PMS_P1;PMS_P2;Temp;Humidity;BMP_temperature;BMP_pressure;BME280_temperature;BME280_humidity;BME280_pressure;Samples;Min_cycle;Max_cycle;Signal;HPM_P1;HPM_P2
2023/12/19 00:00:56;;;;;;;5.80;5.20;;;;;;;1.88;100.00;98104.06;5071378;28;20206;-53
2023/12/19 00:03:23;;;;;;;5.17;4.77;;;;;;;1.86;100.00;98095.44;5070352;28;20203;-53
2023/12/19 00:05:50;;;;;;;5.27;4.77;;;;;;;1.81;100.00;98098.22;5070490;28;20293;-53
2023/12/19 00:08:17;;;;;;;11.97;5.47;;;;;;;1.66;100.00;98098.78;5070182;28;20205;-56
2023/12/19 00:10:44;;;;;;;4.93;4.53;;;;;;;1.77;100.00;98085.34;5070759;28;20232;-53
2023/12/19 00:13:11;;;;;;;5.27;4.70;;;;;;;1.73;100.00;98084.63;5070172;28;20534;-54
2023/12/19 00:15:38;;;;;;;5.20;4.70;;;;;;;1.75;100.00;98077.56;5073066;28;20245;-57
2023/12/19 00:18:06;;;;;;;5.33;4.73;;;;;;;1.84;100.00;98066.81;5074472;28;20210;-53
2023/12/19 00:20:33;;;;;;;5.43;4.93;;;;;;;1.82;100.00;98066.03;5074592;28;20236;-55
2023/12/19 00:23:01;;;;;;;5.60;5.10;;;;;;;1.84;100.00;98066.81;5074591;28;20206;-55
2023/12/19 00:25:30;;;;;;;6.07;5.00;;;;;;;1.74;100.00;98073.25;5074281;28;20207;-54
2023/12/19 00:27:58;;;;;;;5.37;4.87;;;;;;;1.85;100.00;98070.25;5074255;28;20202;-54
2023/12/19 00:30:25;;;;;;;6.23;4.93;;;;;;;1.85;100.00;98071.13;5073954;28;20702;-56
2023/12/19 00:32:52;;;;;;;5.53;5.13;;;;;;;1.85;100.00;98063.31;5074221;28;21625;-55
2023/12/19 00:35:18;;;;;;;5.70;5.20;;;;;;;1.76;100.00;98068.84;5074212;28;20628;-55
2023/12/19 00:37:45;;;;;;;4.80;4.40;;;;;;;1.87;100.00;98073.69;5074284;28;20297;-55
2023/12/19 00:40:15;;;;;;;5.67;5.07;;;;;;;1.88;100.00;98081.44;5074382;28;20209;-55
2023/12/19 00:42:42;;;;;;;5.57;5.07;;;;;;;1.76;100.00;98075.81;5073771;28;20229;-56
2023/12/19 00:45:10;;;;;;;5.50;5.00;;;;;;;1.83;100.00;98077.31;5074470;28;20194;-55
2023/12/19 00:47:38;;;;;;;5.00;4.50;;;;;;;1.88;100.00;98084.06;5073832;28;20198;-56
2023/12/19 00:50:07;;;;;;;5.47;5.07;;;;;;;2.01;100.00;98094.91;5074372;28;20260;-56
2023/12/19 00:52:34;;;;;;;5.87;5.20;;;;;;;2.02;100.00;98093.16;5076191;28;20236;-55
2023/12/19 00:55:00;;;;;;;5.80;5.20;;;;;;;1.98;100.00;98085.41;5076916;28;20230;-55
2023/12/19 00:57:28;;;;;;;5.47;4.97;;;;;;;1.98;100.00;98085.41;5076299;28;20205;-56
2023/12/19 00:59:55;;;;;;;5.67;5.17;;;;;;;1.95;100.00;98093.34;5073452;28;20217;-55
2023/12/19 01:02:22;;;;;;;5.83;5.23;;;;;;;2.02;100.00;98096.59;5076269;28;20202;-56
2023/12/19 01:04:48;;;;;;;6.27;5.40;;;;;;;1.99;100.00;98091.50;5077366;28;20203;-56
2023/12/19 01:07:15;;;;;;;5.03;4.63;;;;;;;1.87;100.00;98094.56;5076685;28;20302;-56
2023/12/19 01:09:42;;;;;;;5.83;5.27;;;;;;;2.00;100.00;98088.84;5075355;28;20205;-57
2023/12/19 01:12:08;;;;;;;4.83;4.43;;;;;;;1.93;100.00;98087.34;5073986;28;20210;-55
2023/12/19 01:14:36;;;;;;;5.30;4.90;;;;;;;1.88;100.00;98089.25;5073802;28;20230;-56
2023/12/19 01:17:03;;;;;;;5.30;4.90;;;;;;;1.65;100.00;98096.22;5073983;28;20300;-55
2023/12/19 01:19:29;;;;;;;4.77;4.43;;;;;;;1.71;100.00;98102.06;5073597;28;20207;-56
2023/12/19 01:21:56;;;;;;;5.30;4.83;;;;;;;1.70;100.00;98092.53;5073637;28;20225;-56
2023/12/19 01:24:22;;;;;;;4.93;4.63;;;;;;;1.62;100.00;98091.97;5073484;28;20534;-54
2023/12/19 01:26:51;;;;;;;4.97;4.57;;;;;;;1.58;100.00;98082.53;5072043;28;20623;-55
2023/12/19 01:29:18;;;;;;;4.33;4.03;;;;;;;1.57;100.00;98073.00;5073264;28;20535;-55
2023/12/19 01:31:46;;;;;;;4.70;4.30;;;;;;;1.52;100.00;98055.84;5073209;28;20412;-57
2023/12/19 01:34:12;;;;;;;4.77;4.37;;;;;;;1.51;100.00;98047.16;5072648;28;20246;-55
2023/12/19 01:36:39;;;;;;;4.87;4.47;;;;;;;1.38;100.00;98056.31;5073119;28;20202;-55
2023/12/19 01:39:06;;;;;;;4.70;4.30;;;;;;;1.42;100.00;98045.72;5072768;28;20260;-55
2023/12/19 01:41:32;;;;;;;5.47;4.97;;;;;;;1.46;100.00;98049.91;5072794;28;20210;-56
2023/12/19 01:43:59;;;;;;;4.87;4.43;;;;;;;1.49;100.00;98049.81;5073569;28;20292;-56
2023/12/19 01:46:26;;;;;;;4.93;4.53;;;;;;;1.56;100.00;98047.81;5074655;28;20209;-56
2023/12/19 01:48:57;;;;;;;5.10;4.70;;;;;;;1.53;100.00;98053.16;5074918;28;20206;-56
2023/12/19 01:51:23;;;;;;;4.87;4.47;;;;;;;1.53;100.00;98055.75;5075898;28;20267;-56
2023/12/19 01:53:50;;;;;;;5.27;4.83;;;;;;;1.54;100.00;98047.03;5075968;28;20223;-59
2023/12/19 01:56:19;;;;;;;5.70;5.20;;;;;;;1.64;100.00;98032.78;5074965;28;20286;-57
2023/12/19 01:58:46;;;;;;;5.40;4.90;;;;;;;1.64;100.00;98037.13;5074256;28;20194;-57
2023/12/19 02:01:12;;;;;;;5.97;5.47;;;;;;;1.68;100.00;98038.72;5073967;28;20202;-55
2023/12/19 02:03:40;;;;;;;8.10;6.67;;;;;;;1.69;100.00;98025.66;5073218;28;20619;-56
2023/12/19 02:06:08;;;;;;;5.73;5.13;;;;;;;1.73;100.00;98027.25;5072658;28;20291;-56
2023/12/19 02:08:35;;;;;;;9.33;5.60;;;;;;;1.72;100.00;98035.97;5072296;28;20213;-55
2023/12/19 02:11:02;;;;;;;5.57;5.07;;;;;;;1.75;100.00;98037.59;5072591;28;20210;-57
2023/12/19 02:13:28;;;;;;;5.90;5.40;;;;;;;1.75;100.00;98038.47;5072111;28;20202;-56
2023/12/19 02:15:55;;;;;;;6.63;5.60;;;;;;;1.82;100.00;98037.34;5071925;28;20234;-55
2023/12/19 02:18:25;;;;;;;6.03;5.47;;;;;;;1.91;100.00;98041.38;5071924;28;20202;-55
2023/12/19 02:20:53;;;;;;;6.97;5.87;;;;;;;1.93;100.00;98035.19;5072244;28;20210;-56
2023/12/19 02:23:22;;;;;;;5.57;5.00;;;;;;;1.96;100.00;98022.03;5071974;28;20209;-55
2023/12/19 02:25:50;;;;;;;5.57;5.03;;;;;;;1.92;100.00;98012.59;5071941;28;20202;-54
2023/12/19 02:28:17;;;;;;;7.00;5.27;;;;;;;1.82;100.00;98000.81;5071848;28;20217;-55
2023/12/19 02:30:44;;;;;;;6.13;5.53;;;;;;;1.80;100.00;98012.22;5072488;28;20202;-56
2023/12/19 02:33:11;;;;;;;9.10;5.20;;;;;;;1.78;100.00;98014.88;5070872;28;20191;-56
2023/12/19 02:35:37;;;;;;;12.33;6.27;;;;;;;1.87;100.00;98013.69;5071711;28;20226;-55
2023/12/19 02:38:04;;;;;;;13.47;5.17;;;;;;;1.85;100.00;98008.53;5071599;28;20305;-55
2023/12/19 02:40:32;;;;;;;5.67;5.17;;;;;;;1.92;100.00;98014.34;5072293;28;20282;-56
2023/12/19 02:43:01;;;;;;;27.57;7.37;;;;;;;1.82;100.00;98007.78;5071913;28;20202;-56
2023/12/19 02:45:28;;;;;;;8.33;6.13;;;;;;;1.84;100.00;97993.78;5071725;28;20195;-56
2023/12/19 02:47:54;;;;;;;5.73;5.23;;;;;;;1.87;100.00;98005.88;5071749;28;20221;-56
2023/12/19 02:50:21;;;;;;;5.77;5.27;;;;;;;1.83;100.00;98002.53;5071909;28;20207;-56
2023/12/19 02:52:49;;;;;;;5.03;4.63;;;;;;;1.75;100.00;97999.34;5071797;28;20562;-55
2023/12/19 02:55:16;;;;;;;5.63;5.13;;;;;;;1.77;100.00;97996.69;5071876;28;20684;-56
2023/12/19 02:57:44;;;;;;;5.00;4.60;;;;;;;1.79;100.00;97993.09;5071781;28;20213;-56
2023/12/19 03:00:12;;;;;;;7.90;4.70;;;;;;;1.74;100.00;97989.81;5072137;28;20725;-56
2023/12/19 03:02:39;;;;;;;4.97;4.57;;;;;;;1.62;100.00;97990.28;5071674;28;20216;-56
2023/12/19 03:05:06;;;;;;;5.97;5.23;;;;;;;1.58;100.00;97990.44;5071671;28;20216;-55
2023/12/19 03:07:33;;;;;;;5.27;4.87;;;;;;;1.54;100.00;97989.69;5071359;28;20206;-56
2023/12/19 03:09:59;;;;;;;6.17;5.13;;;;;;;1.49;100.00;97991.59;5072051;28;20213;-56
2023/12/19 03:12:26;;;;;;;5.50;5.10;;;;;;;1.45;100.00;97990.03;5071568;28;20216;-56
2023/12/19 03:14:54;;;;;;;5.30;4.83;;;;;;;1.52;100.00;97997.56;5071152;28;20238;-56
2023/12/19 03:17:22;;;;;;;5.60;5.10;;;;;;;1.52;100.00;97990.66;5071594;28;20210;-55
2023/12/19 03:19:49;;;;;;;5.13;4.73;;;;;;;1.41;100.00;97984.06;5071664;28;20254;-56
2023/12/19 03:22:15;;;;;;;5.67;5.17;;;;;;;1.46;100.00;97983.88;5075158;28;20198;-56
2023/12/19 03:24:42;;;;;;;5.03;4.63;;;;;;;1.56;100.00;97985.25;5075606;28;20207;-54
2023/12/19 03:27:09;;;;;;;6.17;4.93;;;;;;;1.59;100.00;97956.50;5075071;28;20198;-56
2023/12/19 03:29:36;;;;;;;5.80;5.30;;;;;;;1.56;100.00;97934.91;5072074;28;20221;-55
2023/12/19 03:32:05;;;;;;;6.00;5.40;;;;;;;1.58;100.00;97933.94;5072016;28;20639;-55
2023/12/19 03:34:31;;;;;;;7.33;5.60;;;;;;;1.60;100.00;97936.47;5071671;28;20262;-56
2023/12/19 03:36:58;;;;;;;6.90;5.23;;;;;;;1.56;100.00;97946.16;5070934;28;20653;-56
2023/12/19 03:39:25;;;;;;;5.33;4.93;;;;;;;1.62;100.00;97955.53;5071541;28;20712;-55
2023/12/19 03:41:51;;;;;;;5.87;5.37;;;;;;;1.53;100.00;97951.47;5071632;28;20315;-56
2023/12/19 03:44:18;;;;;;;5.70;5.20;;;;;;;1.55;100.00;97943.63;5071589;28;20198;-56
2023/12/19 03:46:44;;;;;;;5.80;5.30;;;;;;;1.60;100.00;97937.31;5071485;28;20194;-57
2023/12/19 03:49:13;;;;;;;6.23;5.17;;;;;;;1.57;100.00;97936.56;5071987;28;20215;-55
2023/12/19 03:51:39;;;;;;;7.53;5.50;;;;;;;1.55;100.00;97939.25;5071984;28;20634;-55
2023/12/19 03:54:06;;;;;;;6.77;5.27;;;;;;;1.54;100.00;97942.75;5072762;28;20198;-55
2023/12/19 03:56:32;;;;;;;5.67;5.20;;;;;;;1.49;100.00;97932.50;5071313;28;20201;-56
2023/12/19 03:58:59;;;;;;;6.00;5.37;;;;;;;1.48;100.00;97929.97;5070651;28;20226;-56
2023/12/19 04:01:30;;;;;;;5.77;5.27;;;;;;;1.60;100.00;97919.06;5071246;28;20206;-55
2023/12/19 04:03:57;;;;;;;7.67;5.60;;;;;;;1.52;100.00;97913.31;5070376;28;20690;-56
2023/12/19 04:06:28;;;;;;;6.80;6.10;;;;;;;1.39;100.00;97906.81;5070961;28;20649;-54
2023/12/19 04:08:54;;;;;;;6.60;6.00;;;;;;;1.47;100.00;97904.78;5070435;28;20202;-55
2023/12/19 04:11:21;;;;;;;6.50;5.90;;;;;;;1.40;100.00;97916.34;5070482;28;20660;-56
2023/12/19 04:13:47;;;;;;;7.13;5.73;;;;;;;1.46;100.00;97932.63;5071018;28;20211;-56
2023/12/19 04:16:14;;;;;;;6.00;5.50;;;;;;;1.46;100.00;97939.56;5075018;28;20238;-54
2023/12/19 04:18:40;;;;;;;6.83;6.17;;;;;;;1.45;100.00;97933.50;5075667;28;20233;-54
2023/12/19 04:21:08;;;;;;;6.63;6.03;;;;;;;1.55;100.00;97928.84;5073749;28;20210;-54
2023/12/19 04:23:36;;;;;;;6.90;6.33;;;;;;;1.55;100.00;97923.63;5070335;28;20228;-56
2023/12/19 04:26:03;;;;;;;6.80;6.20;;;;;;;1.58;100.00;97927.84;5070540;28;20213;-56
2023/12/19 04:28:30;;;;;;;6.70;6.00;;;;;;;1.54;100.00;97924.53;5069879;28;20201;-54
2023/12/19 04:30:56;;;;;;;6.83;6.00;;;;;;;1.55;100.00;97912.34;5070654;28;20677;-55
2023/12/19 04:33:23;;;;;;;5.70;5.20;;;;;;;1.49;100.00;97924.69;5070656;28;20209;-56
2023/12/19 04:35:50;;;;;;;7.03;5.37;;;;;;;1.57;100.00;97921.78;5070538;28;20566;-54
2023/12/19 04:38:16;;;;;;;6.43;5.13;;;;;;;1.49;100.00;97926.44;5070144;28;20213;-56
2023/12/19 04:40:46;;;;;;;7.20;5.23;;;;;;;1.47;100.00;97905.66;5070918;28;20207;-55
2023/12/19 04:43:13;;;;;;;7.70;5.80;;;;;;;1.55;100.00;97907.13;5070923;28;20571;-55
2023/12/19 04:45:40;;;;;;;9.43;5.10;;;;;;;1.57;100.00;97911.38;5070174;28;20629;-56
2023/12/19 04:48:07;;;;;;;8.83;5.67;;;;;;;1.62;100.00;97914.66;5070036;28;20657;-56
2023/12/19 04:50:34;;;;;;;5.80;5.30;;;;;;;1.66;100.00;97904.97;5070559;28;20202;-55
2023/12/19 04:53:00;;;;;;;6.47;5.97;;;;;;;1.69;100.00;97897.03;5070380;28;20210;-56
2023/12/19 04:55:27;;;;;;;6.93;5.17;;;;;;;1.72;100.00;97905.59;5070551;28;20223;-56
2023/12/19 04:57:55;;;;;;;5.90;5.40;;;;;;;1.71;100.00;97906.47;5069618;28;20205;-56
2023/12/19 05:00:21;;;;;;;6.23;5.63;;;;;;;1.68;100.00;97908.34;5070972;28;20216;-56
2023/12/19 05:02:48;;;;;;;6.43;5.27;;;;;;;1.61;100.00;97912.97;5081386;28;20278;-55
2023/12/19 05:05:15;;;;;;;5.63;5.03;;;;;;;1.46;100.00;97918.72;5094687;28;20249;-56
2023/12/19 05:07:42;;;;;;;5.67;5.17;;;;;;;1.40;100.00;97913.75;5093879;28;20221;-56
2023/12/19 05:10:09;;;;;;;5.67;5.27;;;;;;;1.45;100.00;97907.44;5084828;28;20264;-55
2023/12/19 05:12:36;;;;;;;5.60;5.10;;;;;;;1.40;100.00;97905.94;5073078;28;20290;-56
2023/12/19 05:15:04;;;;;;;6.07;5.57;;;;;;;1.38;100.00;97900.75;5073526;28;20241;-54
2023/12/19 05:17:32;;;;;;;6.37;5.77;;;;;;;1.40;100.00;97901.56;5073468;28;20206;-55
2023/12/19 05:19:59;;;;;;;6.10;5.60;;;;;;;1.38;100.00;97908.56;5073597;28;20768;-54
2023/12/19 05:22:28;;;;;;;7.30;5.30;;;;;;;1.33;100.00;97914.88;5073453;28;20210;-55
2023/12/19 05:24:55;;;;;;;6.70;5.50;;;;;;;1.37;100.00;97911.25;5073393;28;20222;-55
2023/12/19 05:27:22;;;;;;;8.60;5.80;;;;;;;1.36;100.00;97914.75;5073371;28;20207;-56
2023/12/19 05:29:48;;;;;;;5.90;5.40;;;;;;;1.45;100.00;97911.84;5072809;28;20214;-56
2023/12/19 05:32:16;;;;;;;5.80;5.10;;;;;;;1.53;100.00;97912.38;5073203;28;20210;-55
2023/12/19 05:34:43;;;;;;;5.40;4.87;;;;;;;1.59;100.00;97901.75;5072808;28;20228;-55
2023/12/19 05:37:09;;;;;;;5.50;5.00;;;;;;;1.64;100.00;97906.75;5073795;28;20209;-59
2023/12/19 05:39:36;;;;;;;9.43;5.17;;;;;;;1.67;100.00;97897.06;5075087;28;20210;-57
2023/12/19 05:42:03;;;;;;;5.83;5.17;;;;;;;1.74;100.00;97898.53;5076724;28;20265;-56
2023/12/19 05:44:29;;;;;;;9.93;5.83;;;;;;;1.70;100.00;97904.78;5082860;28;20199;-58
2023/12/19 05:46:56;;;;;;;14.30;5.93;;;;;;;1.63;100.00;97905.91;5073240;28;20207;-57
2023/12/19 05:49:24;;;;;;;28.70;6.93;;;;;;;1.64;100.00;97907.63;5073308;28;20210;-57
2023/12/19 05:51:50;;;;;;;21.30;6.50;;;;;;;1.65;100.00;97904.13;5073610;28;20213;-57
2023/12/19 05:54:17;;;;;;;25.87;6.70;;;;;;;1.60;100.00;97911.25;5072913;28;20190;-57
2023/12/19 05:56:44;;;;;;;18.47;6.50;;;;;;;1.63;100.00;97905.91;5072865;28;20226;-57
2023/12/19 05:59:10;;;;;;;12.83;6.47;;;;;;;1.71;100.00;97909.09;5072688;28;20534;-57
2023/12/19 06:01:42;;;;;;;12.80;5.90;;;;;;;1.67;100.00;97906.66;5073154;28;20210;-57
2023/12/19 06:04:11;;;;;;;6.70;5.57;;;;;;;1.63;100.00;97920.72;5072450;28;20195;-56
2023/12/19 06:06:43;;;;;;;22.80;7.37;;;;;;;1.58;100.00;97914.81;5072733;28;20297;-57
2023/12/19 06:09:12;;;;;;;11.47;5.27;;;;;;;1.74;100.00;97908.97;5072794;28;20654;-55
2023/12/19 06:11:38;;;;;;;21.10;6.53;;;;;;;1.73;100.00;97912.50;5072798;28;20756;-56
2023/12/19 06:14:05;;;;;;;15.97;6.83;;;;;;;1.74;100.00;97911.56;5072276;28;20216;-56
2023/12/19 06:16:32;;;;;;;18.57;6.67;;;;;;;1.77;100.00;97908.84;5072975;28;20234;-63
2023/12/19 06:18:59;;;;;;;22.17;7.00;;;;;;;1.81;100.00;97918.25;5073522;28;20620;-55
2023/12/19 06:21:27;;;;;;;8.07;5.63;;;;;;;1.78;100.00;97927.94;5074391;28;20715;-55
2023/12/19 06:23:55;;;;;;;16.37;6.13;;;;;;;1.83;100.00;97918.22;5096156;28;20274;-56
2023/12/19 06:26:24;;;;;;;6.97;5.97;;;;;;;1.85;100.00;97913.78;5096968;28;20263;-56
2023/12/19 06:28:50;;;;;;;6.20;5.50;;;;;;;1.80;100.00;97918.34;5096441;28;20254;-56
2023/12/19 06:31:19;;;;;;;8.37;5.83;;;;;;;1.78;100.00;97907.09;5095575;28;20214;-56
2023/12/19 06:33:45;;;;;;;6.07;5.53;;;;;;;1.71;100.00;97893.44;5095930;28;20190;-54
2023/12/19 06:36:27;;;;;;;6.77;6.17;;;;;;;1.83;100.00;97903.41;5085427;28;20308;-57
2023/12/19 06:38:55;;;;;;;6.83;6.23;;;;;;;1.88;100.00;97906.69;5073411;28;20201;-56
2023/12/19 06:41:22;;;;;;;8.13;6.10;;;;;;;1.90;100.00;97904.88;5073094;28;20213;-57
2023/12/19 06:43:49;;;;;;;18.47;6.80;;;;;;;1.78;100.00;97910.56;5072492;28;20409;-57
2023/12/19 06:46:17;;;;;;;13.50;6.87;;;;;;;1.85;100.00;97914.63;5072337;28;20213;-57
2023/12/19 06:48:44;;;;;;;8.23;6.17;;;;;;;1.88;100.00;97917.13;5072758;28;20210;-57
2023/12/19 06:51:11;;;;;;;7.40;5.60;;;;;;;1.89;100.00;97915.34;5071908;28;20206;-58
2023/12/19 06:53:39;;;;;;;5.80;5.30;;;;;;;1.89;100.00;97905.78;5071344;28;20268;-57
2023/12/19 06:56:08;;;;;;;5.97;5.47;;;;;;;1.89;100.00;97913.59;5072328;28;20561;-57
2023/12/19 06:58:35;;;;;;;6.13;5.53;;;;;;;1.88;100.00;97911.91;5071349;28;20209;-57
2023/12/19 07:01:02;;;;;;;6.20;5.67;;;;;;;1.85;100.00;97905.94;5072219;28;20214;-56
2023/12/19 07:03:28;;;;;;;6.50;5.90;;;;;;;1.91;100.00;97898.72;5072379;28;20198;-57
2023/12/19 07:05:55;;;;;;;5.87;5.37;;;;;;;1.92;100.00;97897.81;5074063;28;20203;-57
2023/12/19 07:08:21;;;;;;;7.50;5.93;;;;;;;1.94;100.00;97896.03;5074009;28;20206;-56
2023/12/19 07:10:48;;;;;;;7.97;5.67;;;;;;;1.96;100.00;97888.13;5072944;28;20198;-57
2023/12/19 07:13:16;;;;;;;6.40;5.23;;;;;;;1.97;100.00;97880.25;5072929;28;20213;-57
2023/12/19 07:15:43;;;;;;;14.03;6.10;;;;;;;1.89;100.00;97879.69;5072359;28;20240;-56
2023/12/19 07:18:09;;;;;;;34.57;8.10;;;;;;;1.82;100.00;97886.06;5071834;28;21336;-56
2023/12/19 07:20:38;;;;;;;6.60;6.00;;;;;;;1.86;100.00;97887.66;5071859;28;20203;-55
2023/12/19 07:23:05;;;;;;;6.03;5.53;;;;;;;1.89;100.00;97877.09;5071704;28;20210;-57
2023/12/19 07:25:32;;;;;;;5.90;5.30;;;;;;;1.82;100.00;97870.41;5070544;28;20236;-57
2023/12/19 07:27:58;;;;;;;6.13;5.50;;;;;;;1.80;100.00;97872.25;5071417;28;20547;-56
2023/12/19 07:30:26;;;;;;;6.17;5.57;;;;;;;1.90;100.00;97865.75;5071595;28;20195;-57
2023/12/19 07:32:53;;;;;;;6.37;5.73;;;;;;;1.97;100.00;97859.38;5071983;28;20199;-57
2023/12/19 07:35:19;;;;;;;6.77;5.10;;;;;;;2.00;100.00;97864.47;5071974;28;20226;-57
2023/12/19 07:37:46;;;;;;;6.33;5.77;;;;;;;2.04;100.00;97856.53;5072860;28;20229;-57
2023/12/19 07:40:14;;;;;;;15.07;6.57;;;;;;;1.99;100.00;97854.94;5072377;28;20202;-56
2023/12/19 07:42:41;;;;;;;18.43;6.37;;;;;;;1.99;100.00;97852.34;5071225;28;20213;-57
2023/12/19 07:45:09;;;;;;;10.37;6.13;;;;;;;2.00;100.00;97853.19;5070818;28;20768;-54
2023/12/19 07:47:36;;;;;;;6.93;5.67;;;;;;;2.05;100.00;97856.47;5070969;28;21459;-56
2023/12/19 07:50:03;;;;;;;8.77;5.77;;;;;;;2.11;100.00;97842.31;5071330;28;20285;-56
2023/12/19 07:52:29;;;;;;;8.73;5.90;;;;;;;2.16;100.00;97837.78;5071245;28;20210;-55
2023/12/19 07:54:56;;;;;;;11.53;6.03;;;;;;;2.02;100.00;97834.88;5072314;28;20214;-56
2023/12/19 07:57:24;;;;;;;6.77;5.50;;;;;;;2.03;100.00;97820.91;5076534;28;20230;-56
2023/12/19 07:59:51;;;;;;;9.60;5.57;;;;;;;2.02;100.00;97825.25;5075882;28;20217;-59
2023/12/19 08:02:17;;;;;;;14.87;6.47;;;;;;;1.94;100.00;97822.13;5072641;28;20646;-54
2023/12/19 08:04:45;;;;;;;7.47;6.00;;;;;;;1.90;100.00;97826.63;5071010;28;20309;-57
2023/12/19 08:07:12;;;;;;;15.20;6.27;;;;;;;1.78;100.00;97827.09;5071127;28;20212;-56
2023/12/19 08:09:38;;;;;;;16.50;6.33;;;;;;;1.82;100.00;97827.81;5070788;28;20194;-56
2023/12/19 08:12:06;;;;;;;27.30;7.03;;;;;;;1.82;100.00;97839.13;5070687;28;20220;-57
2023/12/19 08:14:32;;;;;;;14.67;6.50;;;;;;;1.89;100.00;97837.09;5070272;28;20213;-57
2023/12/19 08:16:59;;;;;;;14.53;5.87;;;;;;;1.93;100.00;97836.94;5070495;28;20546;-55
2023/12/19 08:19:25;;;;;;;6.03;5.27;;;;;;;1.98;100.00;97827.16;5070381;28;20710;-56
2023/12/19 08:21:58;;;;;;;6.30;5.70;;;;;;;2.04;100.00;97817.38;5070490;28;20696;-55
2023/12/19 08:24:25;;;;;;;8.67;5.50;;;;;;;2.04;100.00;97820.84;5070366;28;20201;-57
2023/12/19 08:26:52;;;;;;;7.50;5.73;;;;;;;2.02;100.00;97811.41;5070141;28;20195;-55
2023/12/19 08:29:19;;;;;;;5.97;5.47;;;;;;;2.10;100.00;97806.69;5070422;28;20207;-56
2023/12/19 08:31:46;;;;;;;5.80;5.27;;;;;;;2.12;100.00;97810.09;5071051;28;20230;-56
2023/12/19 08:34:19;;;;;;;13.53;5.90;;;;;;;1.98;100.00;97815.88;5070726;28;20202;-56
2023/12/19 08:36:46;;;;;;;17.67;5.90;;;;;;;2.02;100.00;97825.25;5073017;28;20218;-56
2023/12/19 08:39:14;;;;;;;29.70;7.47;;;;;;;1.95;100.00;97821.19;5074656;28;20219;-57
2023/12/19 08:41:45;;;;;;;6.57;5.97;;;;;;;2.09;100.00;97823.28;5074920;28;20209;-58
2023/12/19 08:44:11;;;;;;;6.47;5.87;;;;;;;2.03;100.00;97824.34;5074589;28;20202;-55
2023/12/19 08:46:38;;;;;;;6.37;5.77;;;;;;;2.03;100.00;97810.47;5074680;28;20206;-55
2023/12/19 08:49:05;;;;;;;6.27;5.77;;;;;;;1.91;100.00;97807.44;5074673;28;20628;-55
2023/12/19 08:51:32;;;;;;;7.83;6.57;;;;;;;1.89;100.00;97801.44;5074838;28;20227;-57
2023/12/19 08:54:02;;;;;;;6.37;5.50;;;;;;;1.70;100.00;97794.44;5074065;28;20631;-57
2023/12/19 08:56:30;;;;;;;6.17;5.57;;;;;;;1.63;100.00;97777.34;5073715;28;20222;-57
2023/12/19 08:58:57;;;;;;;6.17;5.10;;;;;;;1.73;100.00;97770.84;5073492;28;20623;-56
2023/12/19 09:01:23;;;;;;;6.33;5.73;;;;;;;1.86;100.00;97783.31;5073967;28;20220;-55
2023/12/19 09:03:50;;;;;;;6.20;5.40;;;;;;;1.86;100.00;97783.31;5074301;28;20559;-55
2023/12/19 09:06:16;;;;;;;6.10;5.50;;;;;;;1.90;100.00;97786.66;5074465;28;20203;-56
2023/12/19 09:08:43;;;;;;;6.10;5.50;;;;;;;2.04;100.00;97786.94;5074146;28;20198;-57
2023/12/19 09:11:09;;;;;;;4.87;4.47;;;;;;;2.11;100.00;97797.97;5074323;28;20236;-55
2023/12/19 09:13:38;;;;;;;5.23;4.83;;;;;;;2.29;100.00;97803.28;5073734;28;20593;-57
2023/12/19 09:16:09;;;;;;;5.20;4.80;;;;;;;2.92;100.00;97804.88;5074324;28;20240;-56
2023/12/19 09:18:35;;;;;;;5.53;5.03;;;;;;;3.07;100.00;97807.72;5072468;28;20202;-56
2023/12/19 09:21:02;;;;;;;6.20;5.70;;;;;;;3.33;100.00;97807.38;5074444;28;20214;-57
2023/12/19 09:23:28;;;;;;;5.37;4.97;;;;;;;3.97;100.00;97813.88;5073826;28;20209;-57
2023/12/19 09:25:55;;;;;;;5.00;4.60;;;;;;;4.17;100.00;97807.69;5074173;28;20285;-56
2023/12/19 09:28:23;;;;;;;4.53;4.13;;;;;;;4.41;100.00;97798.59;5074277;28;20289;-57
2023/12/19 09:30:51;;;;;;;4.80;4.40;;;;;;;4.64;100.00;97783.50;5074337;28;20208;-56
2023/12/19 09:33:18;;;;;;;4.60;4.20;;;;;;;4.85;100.00;97771.91;5076011;28;20214;-57
2023/12/19 09:35:44;;;;;;;4.67;4.33;;;;;;;4.73;100.00;97783.88;5074060;28;20199;-57
2023/12/19 09:38:11;;;;;;;4.33;3.93;;;;;;;4.83;100.00;97774.59;5073418;28;20305;-57
2023/12/19 09:40:37;;;;;;;4.80;4.40;;;;;;;4.77;100.00;97777.53;5073462;28;20551;-55
2023/12/19 09:43:04;;;;;;;4.87;4.43;;;;;;;4.94;100.00;97771.41;5073166;28;20202;-56
2023/12/19 09:45:30;;;;;;;4.83;4.20;;;;;;;5.36;100.00;97778.75;5073438;28;20293;-56
2023/12/19 09:48:02;;;;;;;4.70;4.23;;;;;;;5.75;100.00;97786.19;5073723;28;20206;-56
2023/12/19 09:50:29;;;;;;;4.50;4.10;;;;;;;6.43;99.30;97780.50;5074405;28;20260;-57
2023/12/19 09:52:57;;;;;;;5.07;3.87;;;;;;;6.28;100.00;97772.66;5073766;28;20199;-57
2023/12/19 09:55:25;;;;;;;5.00;4.50;;;;;;;6.83;94.02;97783.41;5073659;28;20210;-56
2023/12/19 09:57:53;;;;;;;4.67;4.27;;;;;;;6.98;92.72;97772.78;5073954;28;20602;-56
2023/12/19 10:00:20;;;;;;;4.47;4.17;;;;;;;6.98;91.64;97762.28;5073814;28;20237;-55
2023/12/19 10:02:47;;;;;;;4.23;3.83;;;;;;;7.17;89.55;97767.25;5073352;28;20294;-56
2023/12/19 10:05:15;;;;;;;4.57;4.17;;;;;;;7.43;90.31;97758.59;5072727;28;20211;-57
2023/12/19 10:07:42;;;;;;;5.07;4.57;;;;;;;7.28;88.82;97746.38;5073558;28;20209;-56
2023/12/19 10:10:11;;;;;;;4.33;4.03;;;;;;;6.91;90.01;97747.81;5073796;28;20210;-56
2023/12/19 10:12:47;;;;;;;4.43;3.73;;;;;;;7.08;88.70;97741.53;5073924;28;20210;-57
2023/12/19 10:15:15;;;;;;;4.27;3.90;;;;;;;7.34;91.05;97735.47;5073617;28;20226;-59
2023/12/19 10:17:42;;;;;;;5.10;4.60;;;;;;;7.47;89.44;97728.47;5074820;28;20218;-56
2023/12/19 10:20:11;;;;;;;7.77;6.57;;;;;;;7.66;90.19;97719.41;5075260;28;20191;-56
2023/12/19 10:22:39;;;;;;;5.20;4.57;;;;;;;7.91;87.11;97709.84;5075391;28;20305;-57
2023/12/19 10:25:07;;;;;;;4.30;4.00;;;;;;;8.08;86.04;97702.63;5073043;28;20549;-56
2023/12/19 10:27:35;;;;;;;5.87;4.20;;;;;;;8.11;89.65;97691.88;5072450;28;20228;-55
2023/12/19 10:30:17;;;;;;;4.27;3.97;;;;;;;7.71;87.78;97683.97;5072465;28;20531;-55
2023/12/19 10:32:46;;;;;;;4.33;4.03;;;;;;;7.73;89.75;97675.94;5072494;28;20199;-56
2023/12/19 10:35:13;;;;;;;5.63;4.17;;;;;;;7.79;91.38;97671.16;5072053;28;20674;-56
2023/12/19 10:37:42;;;;;;;4.37;4.07;;;;;;;7.79;91.83;97663.25;5072222;28;20297;-58
2023/12/19 10:40:14;;;;;;;6.40;5.80;;;;;;;8.03;91.39;97647.59;5072111;28;20198;-56
2023/12/19 10:42:41;;;;;;;6.07;4.40;;;;;;;8.14;92.78;97641.59;5071788;28;20236;-57
2023/12/19 10:45:09;;;;;;;4.43;4.10;;;;;;;8.29;90.44;97632.69;5071957;28;20207;-56
2023/12/19 10:47:36;;;;;;;4.60;4.30;;;;;;;8.51;88.37;97632.88;5072461;28;20209;-55
2023/12/19 10:50:03;;;;;;;4.37;4.07;;;;;;;8.11;89.60;97626.84;5071774;28;20646;-56
2023/12/19 10:52:29;;;;;;;4.40;4.10;;;;;;;8.15;90.97;97624.88;5072082;28;20305;-58
2023/12/19 10:55:04;;;;;;;5.50;4.70;;;;;;;7.87;92.93;97631.13;5071946;28;20301;-56
2023/12/19 10:57:33;;;;;;;5.20;4.60;;;;;;;7.85;91.47;97623.34;5071786;28;20210;-57
2023/12/19 11:00:09;;;;;;;5.57;4.20;;;;;;;7.49;94.41;97605.56;5072191;28;20217;-57
2023/12/19 11:02:38;;;;;;;5.80;4.37;;;;;;;7.27;95.70;97599.13;5072081;28;20226;-56
2023/12/19 11:05:11;;;;;;;5.50;4.40;;;;;;;6.94;100.00;97595.09;5071144;28;20220;-56
2023/12/19 11:07:38;;;;;;;7.30;4.70;;;;;;;7.04;99.43;97602.41;5071595;28;20540;-57
2023/12/19 11:10:07;;;;;;;5.50;4.70;;;;;;;6.80;100.00;97589.06;5071678;28;20215;-55
2023/12/19 11:12:34;;;;;;;5.30;4.90;;;;;;;6.71;100.00;97593.09;5071236;28;20285;-56
2023/12/19 11:15:01;;;;;;;4.93;4.53;;;;;;;6.72;100.00;97586.91;5071308;28;20237;-57
2023/12/19 11:17:30;;;;;;;6.20;5.00;;;;;;;6.70;100.00;97587.91;5071513;28;20226;-57
2023/12/19 11:20:03;;;;;;;5.97;5.37;;;;;;;6.59;100.00;97595.66;5070737;28;20682;-57
2023/12/19 11:22:33;;;;;;;6.50;4.87;;;;;;;6.52;100.00;97584.66;5071274;28;20206;-57
2023/12/19 11:25:07;;;;;;;6.37;4.93;;;;;;;6.44;100.00;97589.56;5071421;28;20217;-54
2023/12/19 11:27:38;;;;;;;5.10;4.70;;;;;;;6.40;100.00;97569.66;5071299;28;20277;-56
2023/12/19 11:30:06;;;;;;;4.70;4.30;;;;;;;6.40;100.00;97570.50;5070786;28;20201;-56
2023/12/19 11:32:40;;;;;;;5.00;4.60;;;;;;;6.47;100.00;97576.22;5071493;28;20194;-59
2023/12/19 11:35:12;;;;;;;5.60;5.10;;;;;;;6.59;100.00;97566.75;5071413;28;20198;-57